createdAt,value
2019-04-29T00:00:49.812Z,14.13
2019-04-29T00:03:18.233Z,14.13
2019-04-29T00:05:46.680Z,14.45
2019-04-29T00:08:15.104Z,15.55
2019-04-29T00:10:44.217Z,14.70
2019-04-29T00:13:13.547Z,15.75
2019-04-29T00:15:55.639Z,15.70
2019-04-29T00:18:28.533Z,15.55
2019-04-29T00:20:57.188Z,15.30
2019-04-29T00:23:25.799Z,14.60
2019-04-29T00:25:54.228Z,14.25
2019-04-29T00:28:22.652Z,15.35
2019-04-29T00:30:51.189Z,15.70
2019-04-29T00:33:19.689Z,14.65
2019-04-29T00:35:48.129Z,15.05
2019-04-29T00:38:34.464Z,15.70
2019-04-29T00:41:20.787Z,13.83
2019-04-29T00:43:59.927Z,14.00
2019-04-29T00:46:28.540Z,14.28
2019-04-29T00:48:56.960Z,14.10
2019-04-29T00:51:25.383Z,14.93
2019-04-29T00:53:55.464Z,15.63
2019-04-29T00:58:51.582Z,15.83
2019-04-29T01:01:21.657Z,16.07
2019-04-29T01:03:50.079Z,16.48
2019-04-29T01:06:18.527Z,16.40
2019-04-29T01:08:46.969Z,16.17
2019-04-29T01:11:15.721Z,16.02
2019-04-29T01:13:44.273Z,16.90
2019-04-29T01:16:12.771Z,17.32
2019-04-29T01:18:41.995Z,16.05
2019-04-29T01:21:10.421Z,16.77
2019-04-29T01:23:38.846Z,17.20
2019-04-29T01:26:27.023Z,15.70
2019-04-29T01:28:57.345Z,16.55
2019-04-29T01:31:27.583Z,17.32
2019-04-29T01:33:57.645Z,18.57
2019-04-29T01:38:57.022Z,18.87
2019-04-29T01:41:36.199Z,22.25
2019-04-29T01:44:09.120Z,23.52
2019-04-29T01:46:37.533Z,25.02
2019-04-29T01:49:05.973Z,27.87
2019-04-29T01:51:34.411Z,28.07
2019-04-29T01:54:02.841Z,27.82
2019-04-29T01:56:31.270Z,29.00
2019-04-29T01:58:59.766Z,28.07
2019-04-29T02:01:28.247Z,29.45
2019-04-29T02:03:56.760Z,30.43
2019-04-29T02:06:25.387Z,29.23
2019-04-29T02:08:55.185Z,29.40
2019-04-29T02:11:23.628Z,29.42
2019-04-29T02:13:52.215Z,30.70
2019-04-29T02:16:20.646Z,29.20
2019-04-29T02:18:49.166Z,28.73
2019-04-29T02:21:17.733Z,27.95
2019-04-29T02:23:50.715Z,28.67
2019-04-29T02:26:19.139Z,27.65
2019-04-29T02:28:47.569Z,27.87
2019-04-29T02:31:33.725Z,29.30
2019-04-29T02:34:02.169Z,28.02
2019-04-29T02:36:30.600Z,28.32
2019-04-29T02:39:00.933Z,28.02
2019-04-29T02:44:00.286Z,26.80
2019-04-29T02:46:28.954Z,28.30
2019-04-29T02:48:57.390Z,26.48
2019-04-29T02:51:43.514Z,25.88
2019-04-29T02:54:12.755Z,26.62
2019-04-29T02:56:42.785Z,27.37
2019-04-29T02:59:12.854Z,25.00
2019-04-29T03:01:43.299Z,23.38
2019-04-29T03:06:50.436Z,22.98
2019-04-29T03:09:19.504Z,23.90
2019-04-29T03:11:47.974Z,23.10
2019-04-29T03:14:16.501Z,23.10
2019-04-29T03:16:45.306Z,22.40
2019-04-29T03:19:21.562Z,22.10
2019-04-29T03:21:57.829Z,22.40
2019-04-29T03:24:26.250Z,21.87
2019-04-29T03:26:54.888Z,21.42
2019-04-29T03:29:23.384Z,23.40
2019-04-29T03:31:52.652Z,21.97
2019-04-29T03:34:21.135Z,22.57
2019-04-29T03:36:49.557Z,20.35
2019-04-29T03:39:17.986Z,21.77
2019-04-29T03:41:46.450Z,22.05
2019-04-29T03:44:14.947Z,23.55
2019-04-29T03:46:43.381Z,22.42
2019-04-29T03:49:11.808Z,23.10
2019-04-29T03:51:40.483Z,23.18
2019-04-29T03:54:10.683Z,23.05
2019-04-29T03:56:39.183Z,22.75
2019-04-29T03:59:07.684Z,21.45
2019-04-29T04:01:37.778Z,22.45
2019-04-29T04:04:07.838Z,22.98
2019-04-29T04:06:43.597Z,24.25
2019-04-29T04:09:22.432Z,23.55
2019-04-29T04:11:51.019Z,24.77
2019-04-29T04:14:19.447Z,25.30
2019-04-29T04:16:58.321Z,26.62
2019-04-29T04:19:28.394Z,26.13
2019-04-29T04:21:56.812Z,26.00
2019-04-29T04:24:25.242Z,23.33
2019-04-29T04:26:53.682Z,28.10
2019-04-29T04:29:22.162Z,28.03
2019-04-29T04:31:50.593Z,30.37
2019-04-29T04:34:19.041Z,30.00
2019-04-29T04:36:47.463Z,29.45
2019-04-29T04:39:16.216Z,29.07
2019-04-29T04:41:44.671Z,30.10
2019-04-29T04:44:13.083Z,27.98
2019-04-29T04:46:41.584Z,28.80
2019-04-29T04:49:10.772Z,29.38
2019-04-29T04:51:39.222Z,31.65
2019-04-29T04:54:07.638Z,29.40
2019-04-29T04:56:36.230Z,31.33
2019-04-29T04:59:04.657Z,31.48
2019-04-29T05:01:33.129Z,31.48
2019-04-29T05:04:01.556Z,30.37
2019-04-29T05:06:29.991Z,31.77
2019-04-29T05:08:58.420Z,31.97
2019-04-29T05:11:26.929Z,32.65
2019-04-29T05:13:55.362Z,33.08
2019-04-29T05:16:23.998Z,33.98
2019-04-29T05:18:52.438Z,33.90
2019-04-29T05:21:21.374Z,32.85
2019-04-29T05:23:49.904Z,31.48
2019-04-29T05:26:18.428Z,34.23
2019-04-29T05:28:46.854Z,31.93
2019-04-29T05:31:15.300Z,35.90
2019-04-29T05:33:43.859Z,37.83
2019-04-29T05:36:19.895Z,35.73
2019-04-29T05:38:49.977Z,34.58
2019-04-29T05:41:19.183Z,35.63
2019-04-29T05:43:58.671Z,33.55
2019-04-29T05:46:31.723Z,32.57
2019-04-29T05:49:02.474Z,35.23
2019-04-29T05:54:18.803Z,32.00
2019-04-29T05:56:47.216Z,35.70
2019-04-29T05:59:15.654Z,35.83
2019-04-29T06:01:47.186Z,36.20
2019-04-29T06:04:16.377Z,34.18
2019-04-29T06:06:44.591Z,34.18
2019-04-29T06:09:16.632Z,38.78
2019-04-29T06:11:43.198Z,38.30
2019-04-29T06:14:11.908Z,38.40
2019-04-29T06:16:40.613Z,38.95
2019-04-29T06:19:09.039Z,40.95
2019-04-29T06:21:37.490Z,35.35
2019-04-29T06:24:06.348Z,38.80
2019-04-29T06:26:34.929Z,37.83
2019-04-29T06:29:05.808Z,37.05
2019-04-29T06:31:33.582Z,36.77
2019-04-29T06:34:05.338Z,40.03
2019-04-29T06:36:32.250Z,38.67
2019-04-29T06:39:00.672Z,38.48
2019-04-29T06:41:29.163Z,35.73
2019-04-29T06:44:00.648Z,37.30
2019-04-29T06:46:27.891Z,36.13
2019-04-29T06:49:09.417Z,37.60
2019-04-29T06:51:26.487Z,37.42
2019-04-29T06:53:54.922Z,36.68
2019-04-29T06:56:23.525Z,37.45
2019-04-29T06:58:51.959Z,36.10
2019-04-29T07:01:20.408Z,36.35
2019-04-29T07:03:48.993Z,34.78
2019-04-29T07:06:17.527Z,36.88
2019-04-29T07:08:45.948Z,36.23
2019-04-29T07:11:14.410Z,36.17
2019-04-29T07:13:42.904Z,35.10
2019-04-29T07:16:11.346Z,33.88
2019-04-29T07:18:46.241Z,34.80
2019-04-29T07:21:11.916Z,34.23
2019-04-29T07:23:41.182Z,31.57
2019-04-29T07:26:09.637Z,32.88
2019-04-29T07:28:38.255Z,36.65
2019-04-29T07:31:09.883Z,30.77
2019-04-29T07:33:36.883Z,33.50
2019-04-29T07:36:11.214Z,32.13
2019-04-29T07:38:41.701Z,32.30
2019-04-29T07:41:05.976Z,33.10
2019-04-29T07:43:38.670Z,31.30
2019-04-29T07:46:09.044Z,32.28
2019-04-29T07:48:41.866Z,32.23
2019-04-29T07:51:07.736Z,31.02
2019-04-29T07:53:44.797Z,32.98
2019-04-29T07:58:35.854Z,27.82
2019-04-29T08:01:04.296Z,26.95
2019-04-29T08:03:32.902Z,25.35
2019-04-29T08:06:01.930Z,27.70
2019-04-29T08:08:32.008Z,23.65
2019-04-29T08:11:00.430Z,24.65
2019-04-29T08:13:31.170Z,23.55
2019-04-29T08:15:59.605Z,22.32
2019-04-29T08:18:28.043Z,22.48
2019-04-29T08:20:56.479Z,21.48
2019-04-29T08:23:24.919Z,22.02
2019-04-29T08:25:57.483Z,19.37
2019-04-29T08:28:23.524Z,20.65
2019-04-29T08:30:52.028Z,19.60
2019-04-29T08:33:20.464Z,18.80
2019-04-29T08:35:48.882Z,19.35
2019-04-29T08:38:17.378Z,20.27
2019-04-29T08:40:50.092Z,19.60
2019-04-29T08:46:01.938Z,19.60
2019-04-29T08:48:30.382Z,19.92
2019-04-29T08:50:58.792Z,20.88
2019-04-29T08:53:27.237Z,20.17
2019-04-29T08:55:55.720Z,19.62
2019-04-29T08:58:24.219Z,17.17
2019-04-29T09:00:55.764Z,19.57
2019-04-29T09:03:23.346Z,19.23
2019-04-29T09:06:05.033Z,20.27
2019-04-29T09:08:23.121Z,17.62
2019-04-29T09:10:51.625Z,19.15
2019-04-29T09:13:20.324Z,19.37
2019-04-29T09:15:48.763Z,18.70
2019-04-29T09:18:17.196Z,18.35
2019-04-29T09:20:45.658Z,17.80
2019-04-29T09:23:15.777Z,18.52
2019-04-29T09:26:03.203Z,18.52
2019-04-29T09:28:31.790Z,17.73
2019-04-29T09:31:00.224Z,17.48
2019-04-29T09:33:28.824Z,18.48
2019-04-29T09:35:57.250Z,18.87
2019-04-29T09:38:25.722Z,17.12
2019-04-29T09:40:59.500Z,18.60
2019-04-29T09:43:36.534Z,18.95
2019-04-29T09:46:10.181Z,18.30
2019-04-29T09:48:38.622Z,18.40
2019-04-29T09:51:17.331Z,17.75
2019-04-29T09:53:37.219Z,17.57
2019-04-29T09:56:06.009Z,17.15
2019-04-29T09:58:34.549Z,17.65
2019-04-29T10:01:13.744Z,17.57
2019-04-29T10:04:00.236Z,18.92
2019-04-29T10:06:30.300Z,19.80
2019-04-29T10:08:59.000Z,20.52
2019-04-29T10:11:27.520Z,20.12
2019-04-29T10:13:57.067Z,19.48
2019-04-29T10:16:31.779Z,21.43
2019-04-29T10:19:05.239Z,21.35
2019-04-29T10:21:32.300Z,22.77
2019-04-29T10:24:00.740Z,22.73
2019-04-29T10:26:29.483Z,19.80
2019-04-29T10:28:59.553Z,21.70
2019-04-29T10:31:28.037Z,22.75
2019-04-29T10:33:56.598Z,24.98
2019-04-29T10:36:26.316Z,22.60
2019-04-29T10:38:56.554Z,25.27
2019-04-29T10:41:26.685Z,25.63
2019-04-29T10:44:08.600Z,23.40
2019-04-29T10:46:55.105Z,25.37
2019-04-29T10:49:25.171Z,26.77
2019-04-29T10:51:58.145Z,26.75
2019-04-29T10:56:52.267Z,27.60
2019-04-29T10:59:20.832Z,27.25
2019-04-29T11:02:16.097Z,29.45
2019-04-29T11:04:46.181Z,28.55
2019-04-29T11:07:19.033Z,30.20
2019-04-29T11:09:50.712Z,27.93
2019-04-29T11:12:19.421Z,27.00
2019-04-29T11:14:48.151Z,30.72
2019-04-29T11:17:16.954Z,28.98
2019-04-29T11:19:45.393Z,29.00
2019-04-29T11:22:15.449Z,28.23
2019-04-29T11:24:48.228Z,28.57
2019-04-29T11:27:24.193Z,28.12
2019-04-29T11:29:52.674Z,28.90
2019-04-29T11:32:30.350Z,28.67
2019-04-29T11:35:07.150Z,28.98
2019-04-29T11:37:35.730Z,27.55
2019-04-29T11:40:06.573Z,29.15
2019-04-29T11:42:36.768Z,30.23
2019-04-29T11:45:08.443Z,28.15
2019-04-29T11:47:37.136Z,29.67
2019-04-29T11:50:14.987Z,29.98
2019-04-29T11:52:43.481Z,28.42
2019-04-29T11:55:14.078Z,27.82
2019-04-29T12:00:18.201Z,26.87
2019-04-29T12:02:48.277Z,30.62
2019-04-29T12:05:18.347Z,35.13
2019-04-29T12:07:46.849Z,36.48
2019-04-29T12:10:15.263Z,32.73
2019-04-29T12:12:47.635Z,35.05
2019-04-29T12:15:17.904Z,35.25
2019-04-29T12:17:56.832Z,33.95
2019-04-29T12:20:32.447Z,32.50
2019-04-29T12:23:00.887Z,34.20
2019-04-29T12:25:29.458Z,31.77
2019-04-29T12:28:01.653Z,30.43
2019-04-29T12:30:34.451Z,33.67
2019-04-29T12:33:03.094Z,31.70
2019-04-29T12:35:33.635Z,31.02
2019-04-29T12:38:11.230Z,27.02
2019-04-29T12:40:57.302Z,28.10
2019-04-29T12:43:42.349Z,25.05
2019-04-29T12:46:12.463Z,27.90
2019-04-29T12:48:40.856Z,27.67
2019-04-29T12:51:09.430Z,27.70
2019-04-29T12:53:37.848Z,26.90
2019-04-29T12:56:10.906Z,26.37
2019-04-29T12:58:36.512Z,27.13
2019-04-29T13:01:22.603Z,27.25
2019-04-29T13:03:52.678Z,26.50
2019-04-29T13:06:38.829Z,28.05
2019-04-29T13:08:57.707Z,27.75
2019-04-29T13:11:37.602Z,24.98
2019-04-29T13:14:01.717Z,27.15
2019-04-29T13:16:35.451Z,25.55
2019-04-29T13:19:12.453Z,26.75
2019-04-29T13:21:39.530Z,27.05
2019-04-29T13:24:22.120Z,28.23
2019-04-29T13:26:42.645Z,27.10
2019-04-29T13:33:22.501Z,26.80
2019-04-29T13:34:22.856Z,26.25
2019-04-29T13:36:37.996Z,26.40
2019-04-29T13:39:08.661Z,26.97
2019-04-29T13:41:55.600Z,28.40
2019-04-29T13:44:07.943Z,27.65
2019-04-29T13:46:40.664Z,29.12
2019-04-29T13:49:13.405Z,27.85
2019-04-29T13:51:45.796Z,25.90
2019-04-29T13:54:14.235Z,26.15
2019-04-29T13:56:55.512Z,26.87
2019-04-29T13:59:23.817Z,23.45
2019-04-29T14:02:01.417Z,22.60
2019-04-29T14:04:34.979Z,21.90
2019-04-29T14:07:03.787Z,19.07
2019-04-29T14:09:35.035Z,20.23
2019-04-29T14:12:42.338Z,20.45
2019-04-29T14:17:24.271Z,20.37
2019-04-29T14:19:40.983Z,19.73
2019-04-29T14:24:28.337Z,21.50
2019-04-29T14:26:56.765Z,19.57
2019-04-29T14:29:28.129Z,20.47
2019-04-29T14:34:30.553Z,18.17
2019-04-29T14:37:18.367Z,19.00
2019-04-29T14:42:02.185Z,20.70
2019-04-29T14:44:32.251Z,20.92
2019-04-29T14:47:11.333Z,20.70
2019-04-29T14:49:47.034Z,19.07
2019-04-29T14:52:15.542Z,20.20
2019-04-29T14:54:43.989Z,19.07
2019-04-29T14:57:12.422Z,20.25
2019-04-29T14:59:40.993Z,21.48
2019-04-29T15:02:16.059Z,21.25
2019-04-29T15:04:43.162Z,20.32
2019-04-29T15:07:11.570Z,20.20
2019-04-29T15:09:46.776Z,18.70
2019-04-29T15:12:17.053Z,18.12
2019-04-29T15:14:47.850Z,17.42
2019-04-29T15:17:20.857Z,17.23
2019-04-29T15:20:16.151Z,18.48
2019-04-29T15:22:44.580Z,16.82
2019-04-29T15:25:16.629Z,15.43
2019-04-29T15:27:43.925Z,14.58
2019-04-29T15:30:12.574Z,15.08
2019-04-29T15:32:41.010Z,15.53
2019-04-29T15:35:09.572Z,14.15
2019-04-29T15:37:38.020Z,14.63
2019-04-29T15:40:08.205Z,15.40
2019-04-29T15:42:37.837Z,16.12
2019-04-29T15:45:07.494Z,15.80
2019-04-29T15:47:36.042Z,15.70
2019-04-29T15:50:18.243Z,15.68
2019-04-29T15:52:36.385Z,16.75
2019-04-29T15:55:05.661Z,15.48
2019-04-29T15:57:34.391Z,14.83
2019-04-29T16:00:20.505Z,15.15
2019-04-29T16:02:35.914Z,15.32
2019-04-29T16:05:09.238Z,15.60
2019-04-29T16:10:33.020Z,13.83
2019-04-29T16:13:03.100Z,14.33
2019-04-29T16:15:31.553Z,13.48
2019-04-29T16:18:05.095Z,13.98
2019-04-29T16:20:30.166Z,12.90
2019-04-29T16:23:00.694Z,12.23
2019-04-29T16:27:56.374Z,13.15
2019-04-29T16:30:25.902Z,12.75
2019-04-29T16:35:23.859Z,12.43
2019-04-29T16:40:20.804Z,12.35
2019-04-29T16:43:02.648Z,12.73
2019-04-29T16:45:51.753Z,11.90
2019-04-29T16:48:15.117Z,11.65
2019-04-29T16:50:43.754Z,12.18
2019-04-29T16:53:12.396Z,10.95
2019-04-29T16:55:43.053Z,10.93
2019-04-29T16:58:17.705Z,12.03
2019-04-29T17:00:46.703Z,10.65
2019-04-29T17:05:39.365Z,10.48
2019-04-29T17:08:09.482Z,10.58
2019-04-29T17:13:09.103Z,10.98
2019-04-29T17:15:38.150Z,10.30
2019-04-29T17:18:07.134Z,10.88
2019-04-29T17:20:35.549Z,9.83
2019-04-29T17:23:03.969Z,9.73
2019-04-29T17:25:32.419Z,10.35
2019-04-29T17:28:02.489Z,9.70
2019-04-29T17:30:32.675Z,10.48
2019-04-29T17:35:16.714Z,13.62
2019-04-29T17:35:53.117Z,9.48
2019-04-29T17:40:51.241Z,8.25
2019-04-29T17:46:15.614Z,9.68
2019-04-29T17:49:02.053Z,9.30
2019-04-29T17:51:31.688Z,8.68
2019-04-29T17:54:01.800Z,8.78
2019-04-29T17:56:45.070Z,9.53
2019-04-29T17:59:29.542Z,8.53
2019-04-29T18:02:20.781Z,8.33
2019-04-29T18:05:01.912Z,9.05
2019-04-29T18:07:31.980Z,8.70
2019-04-29T18:10:05.132Z,8.15
2019-04-29T18:12:41.071Z,7.47
2019-04-29T18:15:06.008Z,8.98
2019-04-29T18:17:36.251Z,7.95
2019-04-29T18:20:13.606Z,8.95
2019-04-29T18:22:46.764Z,8.45
2019-04-29T18:25:36.588Z,7.90
2019-04-29T18:28:05.216Z,7.80
2019-04-29T18:30:36.497Z,8.33
2019-04-29T18:33:05.380Z,8.15
2019-04-29T18:35:35.441Z,7.90
2019-04-29T18:40:35.488Z,8.10
2019-04-29T18:43:01.957Z,7.75
2019-04-29T18:45:34.360Z,7.55
2019-04-29T18:50:29.656Z,7.45
2019-04-29T18:52:59.164Z,7.87
2019-04-29T18:55:28.184Z,7.75
2019-04-29T18:57:58.461Z,7.35
2019-04-29T19:00:26.940Z,7.85
2019-04-29T19:02:58.475Z,7.30
2019-04-29T19:05:32.282Z,7.37
2019-04-29T19:08:11.294Z,7.45
2019-04-29T19:10:34.427Z,7.30
2019-04-29T19:13:07.103Z,8.08
2019-04-29T19:18:01.436Z,7.28
2019-04-29T19:20:28.600Z,7.62
2019-04-29T19:23:05.676Z,7.62
2019-04-29T19:25:27.182Z,7.72
2019-04-29T19:27:55.696Z,7.62
2019-04-29T19:30:27.019Z,7.22
2019-04-29T19:33:00.519Z,7.65
2019-04-29T19:35:25.290Z,8.03
2019-04-29T19:37:53.957Z,7.92
2019-04-29T19:40:22.447Z,7.33
2019-04-29T19:42:50.883Z,7.85
2019-04-29T19:45:19.308Z,7.33
2019-04-29T19:47:53.034Z,7.85
2019-04-29T19:50:19.688Z,7.37
2019-04-29T19:52:48.513Z,7.78
2019-04-29T19:55:17.168Z,7.47
2019-04-29T19:57:48.085Z,6.95
2019-04-29T20:02:49.737Z,7.72
2019-04-29T20:05:23.841Z,7.83
2019-04-29T20:07:51.357Z,7.37
2019-04-29T20:10:21.335Z,7.80
2019-04-29T20:12:53.251Z,7.95
2019-04-29T20:15:20.982Z,7.58
2019-04-29T20:18:07.208Z,7.97
2019-04-29T20:20:40.873Z,8.30
2019-04-29T20:23:09.550Z,8.53
2019-04-29T20:25:38.929Z,8.15
2019-04-29T20:28:12.668Z,8.55
2019-04-29T20:30:37.756Z,7.42
2019-04-29T20:33:11.034Z,7.85
2019-04-29T20:35:40.430Z,7.42
2019-04-29T20:38:06.771Z,7.97
2019-04-29T20:40:39.069Z,10.08
2019-04-29T20:43:08.374Z,9.80
2019-04-29T20:45:36.327Z,8.65
2019-04-29T20:48:06.404Z,9.23
2019-04-29T20:53:09.312Z,8.38
2019-04-29T20:55:38.660Z,8.78
2019-04-29T20:58:07.451Z,9.15
2019-04-29T21:00:38.142Z,8.28
2019-04-29T21:03:09.446Z,8.58
2019-04-29T21:08:14.533Z,8.73
2019-04-29T21:10:37.864Z,8.23
2019-04-29T21:13:25.770Z,9.13
2019-04-29T21:16:01.670Z,9.83
2019-04-29T21:18:30.094Z,9.13
2019-04-29T21:20:59.673Z,9.75
2019-04-29T21:23:31.618Z,10.30
2019-04-29T21:26:00.435Z,11.00
2019-04-29T21:28:31.488Z,10.35
2019-04-29T21:30:59.485Z,9.98
2019-04-29T21:33:27.911Z,9.83
2019-04-29T21:36:12.985Z,10.32
2019-04-29T21:39:01.808Z,10.32
2019-04-29T21:41:30.046Z,10.28
2019-04-29T21:43:59.260Z,10.10
2019-04-29T21:46:29.513Z,9.00
2019-04-29T21:48:58.067Z,9.93
2019-04-29T21:51:26.496Z,10.30
2019-04-29T21:53:56.006Z,10.53
2019-04-29T21:58:53.907Z,9.15
2019-04-29T22:01:22.854Z,10.32
2019-04-29T22:03:51.278Z,10.23
2019-04-29T22:06:19.733Z,9.88
2019-04-29T22:08:48.160Z,10.78
2019-04-29T22:11:17.497Z,10.20
2019-04-29T22:13:46.349Z,10.97
2019-04-29T22:16:15.765Z,12.70
2019-04-29T22:18:51.793Z,10.85
2019-04-29T22:23:50.966Z,10.58
2019-04-29T22:26:16.316Z,10.00
2019-04-29T22:28:47.431Z,10.10
2019-04-29T22:31:18.098Z,10.32
2019-04-29T22:33:48.774Z,11.10
2019-04-29T22:36:18.071Z,10.75
2019-04-29T22:38:48.701Z,10.53
2019-04-29T22:41:21.061Z,10.50
2019-04-29T22:43:54.637Z,10.93
2019-04-29T22:46:25.549Z,10.95
2019-04-29T22:48:55.702Z,11.22
2019-04-29T22:53:51.759Z,11.30
2019-04-29T22:56:20.177Z,11.22
2019-04-29T22:58:48.636Z,11.10
2019-04-29T23:01:17.840Z,11.05
2019-04-29T23:03:47.309Z,11.75
2019-04-29T23:06:15.835Z,11.23
2019-04-29T23:08:45.006Z,10.93
2019-04-29T23:11:13.486Z,14.15
2019-04-29T23:13:41.919Z,11.93
2019-04-29T23:16:10.636Z,11.57
2019-04-29T23:18:43.514Z,11.38
2019-04-29T23:21:10.938Z,11.20
2019-04-29T23:23:45.413Z,11.90
2019-04-29T23:26:14.826Z,11.80
2019-04-29T23:31:13.839Z,10.73
2019-04-29T23:33:42.292Z,11.10
2019-04-29T23:36:14.086Z,11.90
2019-04-29T23:38:42.788Z,12.00
2019-04-29T23:43:39.049Z,11.28
2019-04-29T23:46:07.492Z,12.00
2019-04-29T23:48:39.452Z,11.70
2019-04-29T23:51:06.627Z,12.28
2019-04-29T23:53:35.229Z,12.13
2019-04-29T23:56:05.564Z,10.93
2019-04-29T23:58:38.748Z,11.83
